Time;durP1;ratioP1;P1;durP2;ratioP2;P2;SDS_P1;SDS_P2;PMS_P1;PMS_P2;Temp;Humidity;BMP_temperature;BMP_pressure;BME280_temperature;BME280_humidity;BME280_pressure;Samples;Min_cycle;Max_cycle;Signal;HPM_P1;HPM_P2
2022/10/22 00:04:00;;;;;;;68.32;25.33;;;;;13.00;96076.00;;;;8363881;28;20696;-76
2022/10/22 00:08:03;;;;;;;77.68;26.40;;;;;12.90;96064.00;;;;8363574;28;20232;-75
2022/10/22 00:12:06;;;;;;;80.38;25.67;;;;;12.90;96064.00;;;;8362485;28;20228;-74
2022/10/22 00:16:10;;;;;;;72.10;24.92;;;;;12.90;96061.00;;;;8363690;28;20220;-75
2022/10/22 00:20:14;;;;;;;71.68;25.55;;;;;12.90;96065.00;;;;8363891;28;20231;-76
2022/10/22 00:24:17;;;;;;;80.72;26.08;;;;;12.90;96059.00;;;;8361850;28;20558;-74
2022/10/22 00:28:21;;;;;;;70.03;26.27;;;;;12.80;96057.00;;;;8362756;28;20235;-75
2022/10/22 00:32:24;;;;;;;81.88;25.77;;;;;12.80;96052.00;;;;8362647;28;20235;-75
2022/10/22 00:36:28;;;;;;;76.60;25.33;;;;;12.80;96040.00;;;;8362643;28;20731;-74
2022/10/22 00:40:31;;;;;;;71.90;25.75;;;;;12.80;96040.00;;;;8361829;28;20700;-75
2022/10/22 00:45:16;;;;;;;78.88;25.70;;;;;12.80;96038.00;;;;8360583;28;20221;-76
2022/10/22 00:49:19;;;;;;;85.18;26.63;;;;;12.90;96046.00;;;;8361239;28;20274;-75
2022/10/22 00:53:27;;;;;;;78.10;25.48;;;;;12.90;96045.00;;;;8361709;28;20227;-74
2022/10/22 00:57:30;;;;;;;82.50;26.48;;;;;12.90;96042.00;;;;8360696;28;20669;-74
2022/10/22 01:01:33;;;;;;;85.15;25.88;;;;;12.80;96049.00;;;;8361794;28;20272;-74
2022/10/22 01:06:11;;;;;;;84.90;27.25;;;;;12.80;96052.00;;;;8359962;28;20235;-74
2022/10/22 01:10:31;;;;;;;82.97;26.15;;;;;12.80;96050.00;;;;8360862;28;20224;-74
2022/10/22 01:14:44;;;;;;;89.40;27.10;;;;;12.90;96051.00;;;;8360433;28;20247;-74
2022/10/22 01:19:22;;;;;;;98.30;27.85;;;;;12.90;96049.00;;;;8361604;28;20232;-74
2022/10/22 01:23:47;;;;;;;94.80;27.85;;;;;12.80;96039.00;;;;8361003;28;20225;-73
2022/10/22 01:28:03;;;;;;;89.47;27.75;;;;;12.80;96037.00;;;;8327946;28;20223;-73
2022/10/22 01:32:11;;;;;;;84.22;27.73;;;;;12.90;96032.00;;;;8360888;28;20219;-74
2022/10/22 01:36:15;;;;;;;96.07;28.65;;;;;12.80;96027.00;;;;8361656;28;20232;-72
2022/10/22 01:40:20;;;;;;;85.80;27.40;;;;;12.90;96039.00;;;;8361236;28;20654;-72
2022/10/22 01:44:27;;;;;;;83.88;28.27;;;;;12.90;96047.00;;;;8361535;28;20235;-72
2022/10/22 01:48:40;;;;;;;91.80;27.27;;;;;12.90;96052.00;;;;8360711;28;20231;-72
2022/10/22 01:52:57;;;;;;;110.50;29.48;;;;;12.80;96050.00;;;;8361595;28;20281;-73
2022/10/22 01:57:09;;;;;;;117.60;30.63;;;;;12.80;96041.00;;;;8360193;28;20662;-72
2022/10/22 02:01:23;;;;;;;131.52;30.35;;;;;12.80;96030.00;;;;8368206;28;20220;-73
2022/10/22 02:05:32;;;;;;;109.45;28.52;;;;;12.90;96014.00;;;;8367110;28;20239;-73
2022/10/22 02:09:37;;;;;;;118.40;28.80;;;;;12.90;96007.00;;;;8367160;28;20546;-73
2022/10/22 02:13:44;;;;;;;98.13;28.33;;;;;12.80;96012.00;;;;8366217;28;20227;-72
2022/10/22 02:17:48;;;;;;;99.50;29.05;;;;;12.90;96006.00;;;;8367158;28;20710;-71
2022/10/22 02:21:53;;;;;;;101.57;28.75;;;;;12.90;96018.00;;;;8365999;28;20570;-70
2022/10/22 02:26:09;;;;;;;132.43;30.58;;;;;12.90;96039.00;;;;8366481;28;20220;-71
2022/10/22 02:30:14;;;;;;;101.93;29.77;;;;;13.00;96038.00;;;;8366575;28;20634;-71
2022/10/22 02:34:22;;;;;;;95.05;27.90;;;;;13.00;96031.00;;;;8366068;28;20240;-72
2022/10/22 02:38:28;;;;;;;90.10;26.00;;;;;13.00;96039.00;;;;8366312;28;20228;-72
2022/10/22 02:42:31;;;;;;;83.50;26.08;;;;;13.00;96035.00;;;;8365409;28;20236;-71
2022/10/22 02:46:34;;;;;;;87.68;25.08;;;;;13.10;96040.00;;;;8366490;28;20212;-71
2022/10/22 02:50:37;;;;;;;98.72;26.52;;;;;13.10;96051.00;;;;8366074;28;20224;-71
2022/10/22 02:54:42;;;;;;;94.15;25.33;;;;;13.20;96060.00;;;;8366518;28;20220;-71
2022/10/22 02:58:45;;;;;;;112.43;25.75;;;;;13.20;96059.00;;;;8365321;28;20220;-71
2022/10/22 03:02:48;;;;;;;128.95;27.17;;;;;13.20;96044.00;;;;8365029;28;20221;-70
2022/10/22 03:07:25;;;;;;;118.80;28.17;;;;;13.20;96037.00;;;;8365757;28;20573;-71
2022/10/22 03:11:29;;;;;;;96.32;24.52;;;;;13.20;96048.00;;;;8364060;28;20283;-71
2022/10/22 03:15:32;;;;;;;108.47;26.15;;;;;13.20;96058.00;;;;8365400;28;20235;-71
2022/10/22 03:19:35;;;;;;;148.13;29.60;;;;;13.20;96057.00;;;;8364573;28;20217;-71
2022/10/22 03:24:12;;;;;;;127.25;27.85;;;;;13.20;96040.00;;;;8365731;28;20682;-71
2022/10/22 03:28:18;;;;;;;105.30;25.55;;;;;13.20;96042.00;;;;8364753;28;20649;-72
2022/10/22 03:32:21;;;;;;;107.65;25.83;;;;;13.30;96050.00;;;;8364990;28;20231;-73
2022/10/22 03:36:25;;;;;;;126.10;26.08;;;;;13.40;96032.00;;;;8364707;28;20239;-72
2022/10/22 03:40:28;;;;;;;85.97;24.40;;;;;13.40;96010.00;;;;8364664;28;20258;-72
2022/10/22 03:44:35;;;;;;;87.90;23.17;;;;;13.40;96048.00;;;;8364515;28;20616;-72
2022/10/22 03:48:38;;;;;;;70.18;21.80;;;;;13.50;96068.00;;;;8364205;28;20212;-71
2022/10/22 03:53:14;;;;;;;65.65;20.35;;;;;13.60;96084.00;;;;8364023;28;20227;-72
2022/10/22 03:57:18;;;;;;;72.18;21.10;;;;;13.70;96093.00;;;;8363080;28;20239;-72
2022/10/22 04:01:22;;;;;;;100.50;23.55;;;;;13.80;96092.00;;;;8364362;28;20232;-72
2022/10/22 04:05:25;;;;;;;111.35;25.08;;;;;13.80;96096.00;;;;8363667;28;20224;-72
2022/10/22 04:10:02;;;;;;;130.77;24.15;;;;;13.80;96092.00;;;;8363792;28;20234;-72
2022/10/22 04:14:06;;;;;;;178.75;29.20;;;;;13.80;96101.00;;;;8362627;28;20216;-72
2022/10/22 04:18:10;;;;;;;97.47;24.17;;;;;13.80;96106.00;;;;8362877;28;20226;-72
2022/10/22 04:22:13;;;;;;;89.68;22.67;;;;;13.90;96097.00;;;;8362629;28;20212;-72
2022/10/22 04:26:17;;;;;;;94.55;21.83;;;;;13.90;96111.00;;;;8362818;28;20223;-72
2022/10/22 04:30:20;;;;;;;65.80;19.30;;;;;13.90;96110.00;;;;8363613;28;20227;-73
2022/10/22 04:34:27;;;;;;;84.28;19.98;;;;;14.00;96097.00;;;;8362602;28;20696;-72
2022/10/22 04:38:30;;;;;;;87.45;21.15;;;;;14.00;96095.00;;;;8363253;28;20227;-72
2022/10/22 04:43:07;;;;;;;80.50;19.77;;;;;14.00;96090.00;;;;8362807;28;20257;-72
2022/10/22 04:47:10;;;;;;;85.68;21.00;;;;;14.00;96110.00;;;;8361324;28;20669;-72
2022/10/22 04:51:17;;;;;;;69.30;19.15;;;;;14.10;96125.00;;;;8362856;28;20350;-72
2022/10/22 04:55:51;;;;;;;95.95;20.23;;;;;14.10;96128.00;;;;8362217;28;20221;-72
2022/10/22 04:59:54;;;;;;;78.70;19.17;;;;;14.10;96132.00;;;;8362592;28;20554;-73
2022/10/22 05:04:00;;;;;;;75.60;19.05;;;;;14.10;96128.00;;;;8361707;28;20227;-73
2022/10/22 05:08:05;;;;;;;73.45;19.88;;;;;14.10;96132.00;;;;8361828;28;20670;-74
2022/10/22 05:12:08;;;;;;;94.57;21.10;;;;;14.10;96137.00;;;;8360474;28;20570;-73
2022/10/22 05:16:36;;;;;;;84.53;20.27;;;;;14.10;96168.00;;;;8357502;28;20696;-74
2022/10/22 05:21:11;;;;;;;70.53;18.70;;;;;14.00;96160.00;;;;8356947;28;20570;-73
2022/10/22 05:25:16;;;;;;;79.07;19.63;;;;;14.10;96175.00;;;;8360587;28;20232;-74
2022/10/22 05:29:19;;;;;;;88.85;20.88;;;;;14.10;96179.00;;;;8361301;28;20250;-74
2022/10/22 05:33:22;;;;;;;46.90;15.85;;;;;14.20;96167.00;;;;8360357;28;20555;-74
2022/10/22 05:37:59;;;;;;;50.95;16.60;;;;;14.20;96173.00;;;;8360973;28;20229;-72
2022/10/22 05:42:04;;;;;;;48.42;14.82;;;;;14.20;96191.00;;;;8360997;28;20627;-72
2022/10/22 05:46:09;;;;;;;47.80;16.55;;;;;14.20;96194.00;;;;8361733;28;20650;-72
2022/10/22 05:50:49;;;;;;;42.65;14.63;;;;;14.20;96185.00;;;;8360489;28;20699;-73
2022/10/22 05:54:52;;;;;;;49.00;15.13;;;;;14.20;96169.00;;;;8360909;28;20300;-73
2022/10/22 05:59:30;;;;;;;40.08;13.30;;;;;14.20;96161.00;;;;8360461;28;20221;-73
2022/10/22 06:03:34;;;;;;;29.15;11.60;;;;;14.20;96165.00;;;;8360820;28;20223;-73
2022/10/22 06:08:12;;;;;;;29.38;12.10;;;;;14.20;96175.00;;;;8359547;28;20635;-72
2022/10/22 06:12:21;;;;;;;37.08;14.07;;;;;14.20;96185.00;;;;8360784;28;20251;-73
2022/10/22 06:16:25;;;;;;;29.13;12.35;;;;;14.30;96193.00;;;;8360174;28;20232;-73
2022/10/22 06:21:03;;;;;;;39.22;12.95;;;;;14.30;96207.00;;;;8360256;28;20224;-74
2022/10/22 06:25:08;;;;;;;34.65;12.20;;;;;14.30;96202.00;;;;8359988;28;20630;-73
2022/10/22 06:29:41;;;;;;;31.40;11.85;;;;;14.20;96197.00;;;;8360231;28;20277;-72
2022/10/22 06:33:46;;;;;;;31.58;11.43;;;;;14.30;96197.00;;;;8359810;28;20562;-73
2022/10/22 06:38:10;;;;;;;33.88;13.68;;;;;14.20;96194.00;;;;8360668;28;20227;-73
2022/10/22 06:42:13;;;;;;;32.75;12.52;;;;;14.20;96204.00;;;;8357931;28;20215;-73
2022/10/22 06:46:50;;;;;;;29.73;11.57;;;;;14.30;96213.00;;;;8361666;28;20228;-73
2022/10/22 06:50:55;;;;;;;28.77;11.40;;;;;14.20;96228.00;;;;8365743;28;20729;-73
2022/10/22 06:54:58;;;;;;;31.58;11.90;;;;;14.20;96244.00;;;;8365850;28;20259;-72
2022/10/22 06:59:01;;;;;;;35.50;11.73;;;;;14.30;96238.00;;;;8363820;28;20253;-72
2022/10/22 07:03:39;;;;;;;28.58;11.95;;;;;14.30;96247.00;;;;8365338;28;20220;-73
2022/10/22 07:07:43;;;;;;;48.42;12.38;;;;;14.30;96255.00;;;;8364755;28;20674;-74
2022/10/22 07:12:17;;;;;;;30.42;11.55;;;;;14.30;96268.00;;;;8365493;28;20677;-74
2022/10/22 07:16:21;;;;;;;26.58;11.57;;;;;14.30;96293.00;;;;8364915;28;20239;-73
2022/10/22 07:20:24;;;;;;;45.00;12.35;;;;;14.40;96299.00;;;;8365731;28;20220;-74
2022/10/22 07:25:02;;;;;;;33.75;12.23;;;;;14.50;96305.00;;;;8364017;28;20235;-74
2022/10/22 07:29:40;;;;;;;30.25;12.38;;;;;14.50;96312.00;;;;8364041;28;20546;-74
2022/10/22 07:34:17;;;;;;;35.30;13.15;;;;;14.50;96322.00;;;;8363911;28;20298;-74
2022/10/22 07:38:56;;;;;;;32.90;12.45;;;;;14.60;96317.00;;;;8364100;28;20220;-74
2022/10/22 07:43:34;;;;;;;33.00;12.25;;;;;14.60;96318.00;;;;8363352;28;20246;-75
2022/10/22 07:48:08;;;;;;;33.00;12.73;;;;;14.70;96327.00;;;;8364209;28;20681;-74
2022/10/22 07:52:45;;;;;;;27.00;10.70;;;;;14.70;96337.00;;;;8363308;28;20208;-74
2022/10/22 07:57:22;;;;;;;25.40;10.00;;;;;14.70;96348.00;;;;8363549;28;20299;-74
2022/10/22 08:02:00;;;;;;;21.52;9.98;;;;;14.70;96355.00;;;;8362978;28;20220;-75
2022/10/22 08:06:34;;;;;;;22.35;9.45;;;;;14.80;96345.00;;;;8363613;28;20254;-76
2022/10/22 08:11:11;;;;;;;21.38;9.15;;;;;14.90;96370.00;;;;8362288;28;20220;-76
2022/10/22 08:15:14;;;;;;;20.60;9.13;;;;;15.00;96381.00;;;;8363168;28;20232;-75
2022/10/22 08:19:20;;;;;;;17.38;8.82;;;;;15.10;96369.00;;;;8362645;28;20566;-76
2022/10/22 08:23:53;;;;;;;25.10;9.65;;;;;15.20;96372.00;;;;8362981;28;20231;-76
2022/10/22 08:28:34;;;;;;;17.58;9.02;;;;;15.30;96369.00;;;;8362981;28;20688;-75
2022/10/22 08:33:05;;;;;;;21.92;8.30;;;;;15.30;96364.00;;;;8362933;28;20295;-73
2022/10/22 08:37:44;;;;;;;23.38;12.57;;;;;15.30;96381.00;;;;8361812;28;20217;-75
2022/10/22 08:41:56;;;;;;;34.53;16.80;;;;;15.40;96386.00;;;;8361622;28;20219;-73
2022/10/22 08:46:33;;;;;;;22.80;13.38;;;;;15.50;96386.00;;;;8361303;28;20266;-70
2022/10/22 08:50:39;;;;;;;18.67;9.77;;;;;15.60;96384.00;;;;8361929;28;20274;-70
2022/10/22 08:54:51;;;;;;;13.48;6.97;;;;;15.60;96364.00;;;;8361666;28;20220;-71
2022/10/22 08:59:22;;;;;;;14.65;8.82;;;;;15.80;96366.00;;;;8362360;28;20254;-71
2022/10/22 09:03:38;;;;;;;8.85;6.90;;;;;15.90;96368.00;;;;8360487;28;20227;-71
2022/10/22 09:08:03;;;;;;;9.05;6.22;;;;;16.00;96384.00;;;;8358490;28;20224;-72
2022/10/22 09:12:10;;;;;;;14.25;8.55;;;;;16.20;96397.00;;;;8359872;28;20620;-72
2022/10/22 09:16:53;;;;;;;10.75;5.93;;;;;16.30;96404.00;;;;8360978;28;20221;-72
2022/10/22 09:21:01;;;;;;;5.50;4.78;;;;;16.30;96412.00;;;;8361490;28;20546;-72
2022/10/22 09:25:18;;;;;;;10.32;8.95;;;;;16.30;96416.00;;;;8361555;28;20674;-73
2022/10/22 09:29:41;;;;;;;5.95;4.63;;;;;16.30;96422.00;;;;8360816;28;20217;-73
2022/10/22 09:33:47;;;;;;;6.47;4.35;;;;;16.30;96421.00;;;;8361243;28;20224;-73
2022/10/22 09:38:17;;;;;;;8.77;5.05;;;;;16.20;96418.00;;;;8360494;28;20652;-73
2022/10/22 09:42:21;;;;;;;7.65;4.95;;;;;16.30;96423.00;;;;8355865;28;20546;-74
2022/10/22 09:46:28;;;;;;;12.68;5.28;;;;;16.30;96421.00;;;;8360800;28;20696;-74
2022/10/22 09:51:02;;;;;;;9.25;5.32;;;;;16.30;96427.00;;;;8360110;28;20231;-74
2022/10/22 09:55:13;;;;;;;5.15;3.67;;;;;16.40;96426.00;;;;8360829;28;20224;-75
2022/10/22 09:59:18;;;;;;;8.10;4.30;;;;;16.50;96429.00;;;;8361015;28;20319;-75
2022/10/22 10:04:02;;;;;;;6.15;3.95;;;;;16.50;96437.00;;;;8359979;28;20224;-75
2022/10/22 10:08:14;;;;;;;3.58;3.10;;;;;16.70;96434.00;;;;8357571;28;20231;-76
2022/10/22 10:12:51;;;;;;;4.15;2.78;;;;;16.90;96437.00;;;;8358470;28;20744;-74
2022/10/22 10:16:58;;;;;;;3.05;2.85;;;;;17.00;96440.00;;;;8358690;28;20254;-75
2022/10/22 10:21:12;;;;;;;3.88;2.97;;;;;17.10;96439.00;;;;8364941;28;20618;-75
2022/10/22 10:25:48;;;;;;;2.45;2.10;;;;;17.20;96442.00;;;;8366826;28;20216;-75
2022/10/22 10:30:00;;;;;;;3.80;1.98;;;;;17.40;96438.00;;;;8366517;28;20216;-75
2022/10/22 10:34:14;;;;;;;2.67;1.88;;;;;17.70;96441.00;;;;8365905;28;20257;-76
2022/10/22 10:38:45;;;;;;;1.98;1.88;;;;;17.80;96438.00;;;;8366306;28;20228;-78
2022/10/22 10:43:21;;;;;;;5.10;1.88;;;;;17.70;96431.00;;;;8366622;28;20216;-79
2022/10/22 10:48:01;;;;;;;3.55;1.50;;;;;17.60;96428.00;;;;8365211;28;20221;-79
2022/10/22 10:52:35;;;;;;;2.33;1.50;;;;;17.80;96432.00;;;;8365147;28;20216;-78
2022/10/22 10:57:11;;;;;;;1.50;1.40;;;;;17.80;96435.00;;;;8365855;28;20666;-79
2022/10/22 11:01:48;;;;;;;2.38;1.30;;;;;18.10;96431.00;;;;8365212;28;20216;-80
2022/10/22 11:06:19;;;;;;;1.60;1.10;;;;;18.40;96431.00;;;;8364897;28;20213;-79
2022/10/22 11:10:57;;;;;;;1.20;1.10;;;;;18.60;96438.00;;;;8364650;28;20263;-77
2022/10/22 11:15:33;;;;;;;1.17;1.17;;;;;18.70;96436.00;;;;8364380;28;20220;-78
2022/10/22 11:19:53;;;;;;;2.13;1.40;;;;;18.80;96435.00;;;;8363382;28;20233;-78
2022/10/22 11:24:10;;;;;;;1.40;1.15;;;;;18.70;96441.00;;;;8364743;28;20221;-79
2022/10/22 11:28:39;;;;;;;1.10;1.10;;;;;18.80;96446.00;;;;8363417;28;20574;-78
2022/10/22 11:32:47;;;;;;;2.75;1.30;;;;;18.70;96437.00;;;;8364190;28;20659;-77
2022/10/22 11:37:17;;;;;;;1.88;1.20;;;;;18.70;96450.00;;;;8364328;28;20250;-78
2022/10/22 11:41:54;;;;;;;1.67;1.20;;;;;18.60;96449.00;;;;8364373;28;20528;-76
2022/10/22 11:46:34;;;;;;;1.30;1.20;;;;;18.40;96445.00;;;;8362381;28;20217;-78
2022/10/22 11:50:58;;;;;;;1.92;1.20;;;;;18.30;96439.00;;;;8363416;28;20221;-78
2022/10/22 11:55:44;;;;;;;1.55;1.45;;;;;18.40;96436.00;;;;8363286;28;20212;-77
2022/10/22 12:00:34;;;;;;;2.13;1.33;;;;;18.50;96439.00;;;;8363895;28;20219;-77
2022/10/22 12:04:52;;;;;;;1.73;1.25;;;;;18.60;96439.00;;;;8362543;28;20553;-78
2022/10/22 12:09:33;;;;;;;3.05;1.35;;;;;18.80;96431.00;;;;8363188;28;20247;-78
2022/10/22 12:14:19;;;;;;;1.30;1.20;;;;;19.00;96435.00;;;;8361023;28;20730;-80
2022/10/22 12:18:25;;;;;;;2.00;1.15;;;;;19.00;96433.00;;;;8352780;28;20228;-77
2022/10/22 12:22:59;;;;;;;1.33;1.23;;;;;18.90;96430.00;;;;8362204;28;20350;-77
2022/10/22 12:27:26;;;;;;;1.10;1.10;;;;;18.70;96424.00;;;;8362316;28;20566;-77
2022/10/22 12:31:36;;;;;;;4.35;1.50;;;;;18.80;96421.00;;;;8362256;28;20715;-76
2022/10/22 12:35:45;;;;;;;3.17;1.30;;;;;19.00;96410.00;;;;8362786;28;20224;-76
2022/10/22 12:40:17;;;;;;;2.33;1.33;;;;;19.10;96419.00;;;;8384406;28;20220;-76
2022/10/22 12:44:21;;;;;;;3.50;1.88;;;;;19.50;96409.00;;;;8361371;28;20213;-76
2022/10/22 12:48:55;;;;;;;5.03;4.53;;;;;19.80;96412.00;;;;8362445;28;20224;-77
2022/10/22 12:53:34;;;;;;;2.40;2.20;;;;;19.80;96405.00;;;;8361164;28;20621;-76
2022/10/22 12:58:08;;;;;;;2.08;1.90;;;;;19.80;96414.00;;;;8361809;28;20227;-76
2022/10/22 13:02:44;;;;;;;4.20;1.58;;;;;19.80;96416.00;;;;8361932;28;20220;-78
2022/10/22 13:07:24;;;;;;;4.60;2.10;;;;;19.90;96423.00;;;;8361420;28;20558;-78
2022/10/22 13:12:03;;;;;;;6.40;4.57;;;;;19.90;96412.00;;;;8360563;28;20750;-78
2022/10/22 13:16:34;;;;;;;1.90;1.75;;;;;19.70;96416.00;;;;8360695;28;20223;-79
2022/10/22 13:21:21;;;;;;;4.10;1.50;;;;;19.60;96416.00;;;;8361522;28;20240;-78
2022/10/22 13:25:57;;;;;;;3.97;2.25;;;;;19.80;96413.00;;;;8360539;28;20225;-78
2022/10/22 13:30:23;;;;;;;1.60;1.50;;;;;19.90;96415.00;;;;8360302;28;20248;-78
2022/10/22 13:34:27;;;;;;;2.35;1.45;;;;;20.00;96421.00;;;;8360215;28;20228;-78
2022/10/22 13:39:05;;;;;;;5.97;1.55;;;;;19.90;96409.00;;;;8361044;28;20224;-79
2022/10/22 13:43:10;;;;;;;1.50;1.40;;;;;19.90;96418.00;;;;8356956;28;20559;-79
2022/10/22 13:47:26;;;;;;;3.10;1.27;;;;;19.90;96419.00;;;;8359588;28;20216;-79
2022/10/22 13:51:33;;;;;;;1.35;1.30;;;;;19.80;96419.00;;;;8359794;28;20212;-79
2022/10/22 13:56:04;;;;;;;2.65;1.85;;;;;19.70;96412.00;;;;8365236;28;20300;-77
2022/10/22 14:00:44;;;;;;;1.65;1.30;;;;;19.70;96416.00;;;;8366795;28;20258;-81
2022/10/22 14:05:16;;;;;;;3.33;1.30;;;;;19.60;96424.00;;;;8363593;28;20718;-82
2022/10/22 14:09:57;;;;;;;2.85;1.60;;;;;19.70;96416.00;;;;8366912;28;20557;-79
2022/10/22 14:14:30;;;;;;;4.47;1.50;;;;;19.70;96423.00;;;;8366579;28;20270;-80
2022/10/22 14:19:12;;;;;;;5.10;1.50;;;;;19.40;96418.00;;;;8357567;28;20220;-81
2022/10/22 14:23:45;;;;;;;2.92;1.27;;;;;19.20;96412.00;;;;8366799;28;20669;-80
2022/10/22 14:28:18;;;;;;;1.58;1.20;;;;;19.10;96419.00;;;;8366604;28;20274;-78
2022/10/22 14:32:22;;;;;;;1.23;1.23;;;;;19.20;96426.00;;;;8366044;28;20271;-78
2022/10/22 14:36:59;;;;;;;1.13;1.02;;;;;19.30;96424.00;;;;8365927;28;20231;-78
2022/10/22 14:41:10;;;;;;;3.65;1.33;;;;;19.50;96429.00;;;;8365017;28;20585;-81
2022/10/22 14:45:38;;;;;;;1.52;1.00;;;;;19.50;96421.00;;;;8365815;28;20220;-80
2022/10/22 14:50:15;;;;;;;2.13;1.15;;;;;19.50;96428.00;;;;8364970;28;20225;-80
2022/10/22 14:54:52;;;;;;;1.77;1.15;;;;;19.50;96436.00;;;;8364698;28;20216;-79
2022/10/22 14:59:30;;;;;;;1.40;1.30;;;;;19.40;96437.00;;;;8364352;28;20615;-78
2022/10/22 15:04:04;;;;;;;1.67;1.30;;;;;19.50;96436.00;;;;8363226;28;20647;-78
2022/10/22 15:08:41;;;;;;;1.10;1.10;;;;;19.60;96436.00;;;;8362537;28;20220;-78
2022/10/22 15:13:18;;;;;;;3.97;1.30;;;;;19.50;96447.00;;;;8365285;28;20650;-78
2022/10/22 15:17:23;;;;;;;1.45;1.40;;;;;19.40;96439.00;;;;8364092;28;20236;-77
2022/10/22 15:26:57;;;;;;;1.73;1.38;;;;;19.10;96459.00;;;;8363831;28;20614;-79
2022/10/22 15:31:37;;;;;;;1.45;1.40;;;;;19.00;96462.00;;;;8364598;28;20217;-78
2022/10/22 15:36:16;;;;;;;3.05;1.42;;;;;18.80;96455.00;;;;8364160;28;20220;-78
2022/10/22 15:40:19;;;;;;;1.38;1.30;;;;;18.60;96477.00;;;;8364288;28;20765;-78
2022/10/22 15:44:24;;;;;;;2.17;1.40;;;;;18.60;96470.00;;;;8363641;28;20594;-78
2022/10/22 15:49:01;;;;;;;2.40;2.00;;;;;18.40;96485.00;;;;8364139;28;20251;-75
2022/10/22 15:53:06;;;;;;;1.65;1.55;;;;;18.30;96483.00;;;;8362143;28;20224;-75
2022/10/22 15:57:39;;;;;;;4.78;1.70;;;;;18.10;96490.00;;;;8363315;28;20217;-75
2022/10/22 16:02:17;;;;;;;3.08;1.67;;;;;17.90;96492.00;;;;8363220;28;20292;-75
2022/10/22 16:06:54;;;;;;;2.00;1.80;;;;;17.60;96492.00;;;;8363042;28;20219;-75
2022/10/22 16:11:33;;;;;;;2.10;1.90;;;;;17.10;96492.00;;;;8361953;28;20289;-74
2022/10/22 16:16:07;;;;;;;2.03;1.92;;;;;16.60;96493.00;;;;8362261;28;20235;-74
2022/10/22 16:20:44;;;;;;;6.88;2.72;;;;;16.20;96499.00;;;;8361890;28;20224;-75
2022/10/22 16:30:20;;;;;;;2.60;2.40;;;;;15.40;96512.00;;;;8361780;28;20238;-71
2022/10/22 16:34:54;;;;;;;2.40;2.30;;;;;15.00;96513.00;;;;8360027;28;20224;-70
2022/10/22 16:39:31;;;;;;;3.88;2.20;;;;;14.70;96518.00;;;;8361265;28;20232;-71
2022/10/22 16:43:34;;;;;;;2.72;2.53;;;;;14.50;96521.00;;;;8361886;28;20622;-73
2022/10/22 16:47:41;;;;;;;3.40;3.10;;;;;14.40;96531.00;;;;8361694;28;20216;-72
2022/10/22 16:51:45;;;;;;;6.47;2.80;;;;;14.20;96539.00;;;;8360403;28;20266;-72
2022/10/22 16:56:22;;;;;;;4.00;3.70;;;;;13.90;96536.00;;;;8363942;28;20230;-72
2022/10/22 17:00:58;;;;;;;5.30;3.20;;;;;13.80;96537.00;;;;8372131;28;20241;-71
2022/10/22 17:05:37;;;;;;;6.82;3.10;;;;;13.70;96530.00;;;;8360289;28;20225;-71
2022/10/22 17:10:11;;;;;;;3.60;3.25;;;;;13.50;96543.00;;;;8360788;28;20228;-72
2022/10/22 17:14:49;;;;;;;4.93;3.17;;;;;13.40;96555.00;;;;8360767;28;20216;-72
2022/10/22 17:19:27;;;;;;;4.25;3.72;;;;;13.30;96557.00;;;;8360937;28;20254;-71
2022/10/22 17:23:31;;;;;;;5.60;3.70;;;;;13.20;96550.00;;;;8360176;28;20216;-71
2022/10/22 17:28:05;;;;;;;6.22;3.92;;;;;13.10;96565.00;;;;8360998;28;20224;-71
2022/10/22 17:32:08;;;;;;;6.78;3.80;;;;;12.90;96568.00;;;;8360094;28;20550;-71
2022/10/22 17:36:45;;;;;;;8.07;4.30;;;;;12.90;96565.00;;;;8359480;28;20242;-71
2022/10/22 17:41:25;;;;;;;7.97;4.57;;;;;12.80;96569.00;;;;8355743;28;20570;-72
2022/10/22 17:45:58;;;;;;;7.53;4.90;;;;;12.60;96572.00;;;;8359617;28;20609;-72
2022/10/22 17:50:39;;;;;;;8.93;4.30;;;;;12.50;96575.00;;;;8358728;28;20227;-72
2022/10/22 17:55:13;;;;;;;7.22;4.32;;;;;12.40;96577.00;;;;8357061;28;20274;-72
2022/10/22 17:59:50;;;;;;;11.13;4.93;;;;;12.40;96574.00;;;;8358745;28;20224;-72
2022/10/22 18:04:28;;;;;;;11.70;5.97;;;;;12.40;96574.00;;;;8360616;28;20233;-72
2022/10/22 18:09:04;;;;;;;12.63;5.78;;;;;12.30;96579.00;;;;8359795;28;20224;-72
2022/10/22 18:13:38;;;;;;;9.10;4.60;;;;;12.20;96573.00;;;;8359768;28;20222;-71
2022/10/22 18:18:15;;;;;;;10.05;5.35;;;;;12.10;96568.00;;;;8360042;28;20266;-72
2022/10/22 18:22:55;;;;;;;7.72;4.82;;;;;12.00;96560.00;;;;8360358;28;20227;-71
2022/10/22 18:26:58;;;;;;;13.23;7.40;;;;;12.00;96564.00;;;;8358906;28;20218;-71
2022/10/22 18:31:35;;;;;;;18.15;6.53;;;;;12.00;96566.00;;;;8360073;28;20254;-71
2022/10/22 18:35:40;;;;;;;11.23;7.13;;;;;11.90;96575.00;;;;8359969;28;20554;-71
2022/10/22 18:39:44;;;;;;;17.08;7.78;;;;;11.80;96575.00;;;;8360396;28;20519;-71
2022/10/22 18:44:23;;;;;;;20.00;9.35;;;;;11.80;96576.00;;;;8365220;28;20222;-71
2022/10/22 18:48:57;;;;;;;25.83;10.98;;;;;11.80;96589.00;;;;8366275;28;20221;-70
2022/10/22 18:53:34;;;;;;;12.93;5.82;;;;;11.70;96595.00;;;;8365148;28;20248;-71
2022/10/22 18:58:12;;;;;;;15.07;7.70;;;;;11.50;96591.00;;;;8365459;28;20219;-70
2022/10/22 19:02:46;;;;;;;11.45;5.82;;;;;11.40;96592.00;;;;8364559;28;20216;-70
2022/10/22 19:07:23;;;;;;;15.05;7.10;;;;;11.30;96588.00;;;;8365449;28;20245;-70
2022/10/22 19:12:00;;;;;;;12.00;5.30;;;;;11.30;96589.00;;;;8365110;28;20228;-71
2022/10/22 19:16:37;;;;;;;13.10;6.40;;;;;11.20;96587.00;;;;8364796;28;20242;-71
2022/10/22 19:21:15;;;;;;;18.42;9.52;;;;;11.20;96598.00;;;;8364608;28;20631;-70
2022/10/22 19:25:18;;;;;;;13.15;7.80;;;;;11.20;96600.00;;;;8361511;28;20221;-70
2022/10/22 19:29:55;;;;;;;14.20;7.75;;;;;11.20;96597.00;;;;8364480;28;20240;-70
2022/10/22 19:34:32;;;;;;;11.15;6.53;;;;;11.10;96601.00;;;;8363071;28;20216;-70
2022/10/22 19:39:14;;;;;;;14.02;6.50;;;;;11.10;96593.00;;;;8364031;28;20214;-71
2022/10/22 19:43:48;;;;;;;17.80;6.78;;;;;11.10;96589.00;;;;8363986;28;20293;-70
2022/10/22 19:47:51;;;;;;;14.38;6.13;;;;;11.20;96597.00;;;;8363908;28;20215;-70
2022/10/22 19:52:28;;;;;;;13.13;6.63;;;;;11.10;96592.00;;;;8362300;28;20223;-70
2022/10/22 19:57:06;;;;;;;11.73;6.32;;;;;11.10;96602.00;;;;8361425;28;20219;-70
2022/10/22 20:01:11;;;;;;;9.15;5.53;;;;;11.10;96608.00;;;;8363446;28;20559;-70
2022/10/22 20:05:45;;;;;;;14.55;7.43;;;;;11.00;96601.00;;;;8361902;28;20223;-71
2022/10/22 20:09:49;;;;;;;13.60;6.15;;;;;11.10;96604.00;;;;8362891;28;20228;-70
2022/10/22 20:13:53;;;;;;;12.25;6.85;;;;;11.00;96604.00;;;;8353334;28;20220;-71
2022/10/22 20:17:57;;;;;;;17.48;7.03;;;;;11.00;96608.00;;;;8330279;28;20217;-70
2022/10/22 20:22:34;;;;;;;89.22;12.27;;;;;11.10;96600.00;;;;8329636;28;20222;-70
2022/10/22 20:27:10;;;;;;;15.63;7.40;;;;;11.00;96613.00;;;;8329462;28;20574;-70
2022/10/22 20:31:18;;;;;;;22.92;7.97;;;;;10.90;96614.00;;;;8296490;28;20220;-71
2022/10/22 20:35:49;;;;;;;13.30;7.50;;;;;10.90;96605.00;;;;8299643;28;20237;-70
2022/10/22 20:39:52;;;;;;;30.33;8.77;;;;;10.80;96603.00;;;;8295737;28;20693;-70
2022/10/22 20:44:29;;;;;;;273.17;18.02;;;;;10.80;96608.00;;;;8297185;28;20560;-70
2022/10/22 20:49:05;;;;;;;31.40;9.05;;;;;10.80;96605.00;;;;8295292;28;20217;-70
2022/10/22 20:53:44;;;;;;;18.55;8.05;;;;;10.80;96620.00;;;;8295977;28;20225;-69
2022/10/22 20:58:17;;;;;;;19.77;8.30;;;;;10.90;96621.00;;;;8295036;28;20241;-69
2022/10/22 21:02:44;;;;;;;171.15;15.40;;;;;10.90;96623.00;;;;8295063;28;20234;-70
2022/10/22 21:06:49;;;;;;;18.98;8.95;;;;;10.90;96632.00;;;;8295495;28;20219;-70
2022/10/22 21:10:54;;;;;;;41.92;10.98;;;;;11.00;96629.00;;;;8295522;28;20632;-69
2022/10/22 21:14:57;;;;;;;365.90;22.48;;;;;11.00;96632.00;;;;8294625;28;20225;-70
2022/10/22 21:19:01;;;;;;;489.17;24.98;;;;;11.00;96636.00;;;;8295472;28;20241;-69
2022/10/22 21:23:04;;;;;;;19.38;10.63;;;;;11.00;96634.00;;;;8295737;28;20663;-70
2022/10/22 21:27:09;;;;;;;767.28;42.22;;;;;11.10;96630.00;;;;8294868;28;20228;-69
2022/10/22 21:31:18;;;;;;;68.45;14.13;;;;;11.10;96629.00;;;;8295174;28;20232;-69
2022/10/22 21:35:22;;;;;;;757.35;36.92;;;;;11.30;96623.00;;;;8294833;28;20224;-70
2022/10/22 21:39:46;;;;;;;648.03;40.08;;;;;11.30;96629.00;;;;8295924;28;20249;-69